Time;durP1;ratioP1;P1;durP2;ratioP2;P2;SDS_P1;SDS_P2;PMS_P1;PMS_P2;Temp;Humidity;BMP_temperature;BMP_pressure;BME280_temperature;BME280_humidity;BME280_pressure;Samples;Min_cycle;Max_cycle;Signal;HPM_P1;HPM_P2
2020/12/21 00:00:07;;;;;;;24.23;17.03;;;0.20;99.90;;;;;;5033526;28;20021;-86
2020/12/21 00:02:33;;;;;;;23.20;16.90;;;0.20;99.90;;;;;;5033130;28;20028;-86
2020/12/21 00:04:59;;;;;;;26.27;18.93;;;0.30;99.90;;;;;;5033224;28;20018;-86
2020/12/21 00:07:24;;;;;;;24.87;17.37;;;0.30;99.90;;;;;;5015124;28;20045;-87
2020/12/21 00:09:50;;;;;;;25.70;17.03;;;0.40;99.90;;;;;;5033305;28;20367;-87
2020/12/21 00:12:15;;;;;;;20.13;14.63;;;0.40;99.90;;;;;;5033083;28;20056;-87
2020/12/21 00:14:41;;;;;;;21.23;15.50;;;0.40;99.90;;;;;;5033375;28;20092;-86
2020/12/21 00:17:06;;;;;;;20.67;15.47;;;0.40;99.90;;;;;;5032395;28;20057;-87
2020/12/21 00:19:32;;;;;;;22.00;15.83;;;0.50;99.90;;;;;;5033063;28;20065;-86
2020/12/21 00:21:58;;;;;;;24.17;16.57;;;0.50;99.90;;;;;;5032817;28;20025;-86
2020/12/21 00:24:23;;;;;;;22.63;15.37;;;0.50;99.90;;;;;;5033033;28;20028;-87
2020/12/21 00:26:51;;;;;;;22.70;16.10;;;0.50;99.90;;;;;;5032628;28;20096;-86
2020/12/21 00:29:18;;;;;;;24.50;15.57;;;0.50;99.90;;;;;;5031422;28;20030;-86
2020/12/21 00:31:44;;;;;;;23.77;16.83;;;0.50;99.90;;;;;;5032614;28;20374;-86
2020/12/21 00:34:10;;;;;;;22.97;16.03;;;0.60;99.90;;;;;;5032652;28;20500;-86
2020/12/21 00:36:41;;;;;;;22.23;15.67;;;0.60;99.90;;;;;;5032456;28;20045;-86
2020/12/21 00:39:07;;;;;;;21.87;15.30;;;0.60;99.90;;;;;;5032308;28;20067;-86
2020/12/21 00:41:33;;;;;;;24.23;17.00;;;0.60;99.90;;;;;;5032533;28;20080;-87
2020/12/21 00:43:58;;;;;;;23.17;16.03;;;0.60;99.90;;;;;;5032744;28;20459;-86
2020/12/21 00:46:26;;;;;;;21.87;16.17;;;0.60;99.90;;;;;;5014463;28;20021;-86
2020/12/21 00:48:53;;;;;;;21.57;15.60;;;0.60;99.90;;;;;;5032687;28;20056;-86
2020/12/21 00:51:19;;;;;;;24.87;16.30;;;0.70;99.90;;;;;;5032488;28;20029;-86
2020/12/21 00:53:45;;;;;;;23.73;16.10;;;0.70;99.90;;;;;;5032651;28;20375;-85
2020/12/21 00:56:11;;;;;;;23.83;16.23;;;0.70;99.90;;;;;;5032241;28;20474;-85
2020/12/21 00:58:40;;;;;;;22.23;15.77;;;0.70;99.90;;;;;;5032201;28;20072;-85
2020/12/21 01:01:09;;;;;;;23.40;15.87;;;0.70;99.90;;;;;;5032194;28;20045;-86
2020/12/21 01:03:35;;;;;;;21.33;15.33;;;0.70;99.90;;;;;;5014581;28;20033;-86
2020/12/21 01:06:01;;;;;;;23.77;17.07;;;0.70;99.90;;;;;;5032118;28;20021;-86
2020/12/21 01:08:27;;;;;;;24.27;17.03;;;0.80;99.90;;;;;;5008635;28;20021;-86
2020/12/21 01:10:52;;;;;;;24.50;15.93;;;0.80;99.90;;;;;;5032209;28;20025;-86
2020/12/21 01:13:18;;;;;;;24.57;17.13;;;0.80;99.90;;;;;;5032289;28;20033;-86
2020/12/21 01:15:43;;;;;;;24.03;15.90;;;0.80;99.90;;;;;;5032559;28;20025;-86
2020/12/21 01:18:09;;;;;;;25.40;17.70;;;0.80;99.90;;;;;;5032039;28;20044;-86
2020/12/21 01:20:35;;;;;;;27.03;16.53;;;0.80;99.90;;;;;;5032308;28;20033;-86
2020/12/21 01:23:01;;;;;;;24.10;16.23;;;0.80;99.90;;;;;;5031889;28;20445;-87
2020/12/21 01:25:27;;;;;;;24.67;16.57;;;0.80;99.90;;;;;;5014382;28;20423;-86
2020/12/21 01:27:53;;;;;;;23.00;16.00;;;0.80;99.90;;;;;;5009858;28;20053;-86
2020/12/21 01:30:18;;;;;;;24.77;15.03;;;0.90;99.90;;;;;;5030840;28;20460;-86
2020/12/21 01:32:44;;;;;;;22.00;15.53;;;0.90;99.90;;;;;;5031891;28;20028;-86
2020/12/21 01:35:09;;;;;;;23.03;15.73;;;0.90;99.90;;;;;;5010856;28;20049;-86
2020/12/21 01:37:35;;;;;;;20.87;15.03;;;0.90;99.90;;;;;;5022390;28;20220;-86
2020/12/21 01:40:03;;;;;;;25.23;16.57;;;0.90;99.90;;;;;;5031713;28;20125;-86
2020/12/21 01:42:28;;;;;;;23.03;16.50;;;0.90;99.90;;;;;;5031662;28;20041;-85
2020/12/21 01:44:54;;;;;;;25.70;17.27;;;1.00;99.90;;;;;;5031580;28;20089;-86
2020/12/21 01:47:22;;;;;;;24.00;17.03;;;1.00;99.90;;;;;;5032143;28;20009;-86
2020/12/21 01:49:49;;;;;;;24.07;16.07;;;1.00;99.90;;;;;;5031696;28;20040;-86
2020/12/21 01:52:16;;;;;;;24.13;16.53;;;1.00;99.90;;;;;;5031704;28;20021;-86
2020/12/21 01:54:44;;;;;;;21.43;15.73;;;1.00;99.90;;;;;;5031774;28;20077;-86
2020/12/21 01:57:09;;;;;;;25.20;16.53;;;1.00;99.90;;;;;;5031973;28;20045;-86
2020/12/21 01:59:35;;;;;;;24.40;16.07;;;1.00;99.90;;;;;;5033844;28;20033;-86
2020/12/21 02:02:01;;;;;;;25.10;16.83;;;1.10;99.90;;;;;;5035767;28;20105;-86
2020/12/21 02:04:26;;;;;;;24.47;17.17;;;1.00;99.90;;;;;;5035560;28;20391;-86
2020/12/21 02:06:54;;;;;;;20.30;15.03;;;1.10;99.90;;;;;;5035824;28;20026;-86
2020/12/21 02:09:20;;;;;;;21.23;15.27;;;1.10;99.90;;;;;;5031027;28;20022;-86
2020/12/21 02:11:46;;;;;;;21.43;15.43;;;1.10;99.90;;;;;;5032266;28;20033;-87
2020/12/21 02:14:11;;;;;;;21.47;15.80;;;1.10;99.90;;;;;;5035071;28;20101;-87
2020/12/21 02:16:37;;;;;;;22.20;16.10;;;1.10;99.90;;;;;;5018070;28;20028;-86
2020/12/21 02:19:04;;;;;;;21.17;15.40;;;1.10;99.90;;;;;;5035151;28;20056;-86
2020/12/21 02:21:29;;;;;;;23.07;16.27;;;1.10;99.90;;;;;;5035200;28;20378;-87
2020/12/21 02:23:56;;;;;;;22.90;16.47;;;1.10;99.90;;;;;;5034804;28;20022;-86
2020/12/21 02:26:21;;;;;;;21.00;15.70;;;1.10;99.90;;;;;;5035092;28;20088;-86
2020/12/21 02:28:58;;;;;;;23.87;16.20;;;1.10;99.90;;;;;;5017098;28;20113;-86
2020/12/21 02:31:24;;;;;;;26.90;18.13;;;1.10;99.90;;;;;;5017448;28;20040;-86
2020/12/21 02:33:50;;;;;;;25.43;17.33;;;1.10;99.90;;;;;;5035123;28;20021;-86
2020/12/21 02:36:16;;;;;;;23.23;16.23;;;1.20;99.90;;;;;;5035005;28;20125;-86
2020/12/21 02:38:42;;;;;;;22.13;16.17;;;1.10;99.90;;;;;;5034549;28;20176;-86
2020/12/21 02:41:11;;;;;;;25.90;17.97;;;1.20;99.90;;;;;;5034945;28;20024;-87
2020/12/21 02:43:37;;;;;;;24.40;17.07;;;1.20;99.90;;;;;;5016789;28;20029;-86
2020/12/21 02:46:05;;;;;;;23.93;17.00;;;1.20;99.90;;;;;;5034745;28;20485;-86
2020/12/21 02:48:31;;;;;;;26.07;17.73;;;1.20;99.90;;;;;;5035211;28;20021;-86
2020/12/21 02:50:56;;;;;;;26.10;16.50;;;1.30;99.90;;;;;;5031714;28;20423;-86
2020/12/21 02:53:22;;;;;;;23.80;15.80;;;1.30;99.90;;;;;;5034734;28;20132;-86
2020/12/21 02:55:47;;;;;;;21.33;16.40;;;1.30;99.90;;;;;;5034562;28;20083;-87
2020/12/21 02:58:13;;;;;;;23.00;16.20;;;1.30;99.90;;;;;;5034923;28;20029;-86
2020/12/21 03:00:39;;;;;;;22.10;15.90;;;1.30;99.90;;;;;;5016826;28;20033;-86
2020/12/21 03:03:06;;;;;;;23.13;16.00;;;1.30;99.90;;;;;;5016634;28;20021;-86
2020/12/21 03:05:33;;;;;;;21.97;15.70;;;1.30;99.90;;;;;;5034545;28;20164;-87
2020/12/21 03:07:59;;;;;;;24.63;16.07;;;1.30;99.90;;;;;;5013178;28;20064;-87
2020/12/21 03:10:25;;;;;;;24.77;16.00;;;1.30;99.90;;;;;;5025177;28;20681;-87
2020/12/21 03:12:51;;;;;;;24.03;16.67;;;1.30;99.90;;;;;;5034200;28;20030;-87
2020/12/21 03:15:17;;;;;;;23.30;16.97;;;1.30;99.90;;;;;;5034369;28;20044;-87
2020/12/21 03:17:42;;;;;;;23.90;16.93;;;1.30;99.90;;;;;;5034064;28;20021;-87
2020/12/21 03:20:08;;;;;;;25.43;16.20;;;1.30;99.90;;;;;;5034180;28;20026;-86
2020/12/21 03:22:34;;;;;;;23.37;16.27;;;1.30;99.90;;;;;;5032768;28;20036;-87
2020/12/21 03:25:00;;;;;;;21.47;15.73;;;1.30;99.90;;;;;;5034223;28;20017;-87
2020/12/21 03:27:26;;;;;;;23.10;16.23;;;1.30;99.90;;;;;;5024676;28;20047;-88
2020/12/21 03:29:52;;;;;;;23.77;16.20;;;1.30;99.90;;;;;;5011739;28;20031;-87
2020/12/21 03:32:17;;;;;;;23.73;16.20;;;1.30;99.90;;;;;;5034046;28;20441;-87
2020/12/21 03:34:43;;;;;;;23.30;17.40;;;1.40;99.90;;;;;;5033846;28;20061;-87
2020/12/21 03:37:08;;;;;;;24.73;17.07;;;1.40;99.90;;;;;;5016205;28;20040;-87
2020/12/21 03:39:34;;;;;;;24.30;17.63;;;1.40;99.90;;;;;;5015976;28;20080;-87
2020/12/21 03:42:01;;;;;;;25.40;17.20;;;1.50;99.90;;;;;;5033930;28;20024;-86
2020/12/21 03:44:27;;;;;;;25.87;16.93;;;1.50;99.90;;;;;;5033454;28;20029;-87
2020/12/21 03:46:53;;;;;;;23.30;16.67;;;1.50;99.90;;;;;;5033368;28;20099;-87
2020/12/21 03:49:18;;;;;;;24.50;16.93;;;1.50;99.90;;;;;;5020185;28;20064;-87
2020/12/21 03:51:44;;;;;;;24.67;16.83;;;1.50;99.90;;;;;;5032772;28;20033;-87
2020/12/21 03:54:09;;;;;;;24.50;17.57;;;1.60;99.90;;;;;;5013405;28;20442;-87
2020/12/21 03:56:35;;;;;;;23.73;15.70;;;1.60;99.90;;;;;;5033087;28;20044;-87
2020/12/21 03:59:00;;;;;;;22.90;16.60;;;1.60;99.90;;;;;;5033128;28;20048;-88
2020/12/21 04:01:26;;;;;;;26.90;16.87;;;1.60;99.90;;;;;;5033327;28;20057;-87
2020/12/21 04:03:51;;;;;;;23.33;17.03;;;1.50;99.90;;;;;;5033540;28;20355;-84
2020/12/21 04:06:18;;;;;;;24.57;15.97;;;1.60;99.90;;;;;;5033888;28;20111;-84
2020/12/21 04:08:44;;;;;;;20.37;15.40;;;1.60;99.90;;;;;;5016497;28;20044;-84
2020/12/21 04:11:09;;;;;;;21.87;15.93;;;1.60;99.90;;;;;;5033659;28;20029;-84
2020/12/21 04:13:35;;;;;;;21.00;15.83;;;1.60;99.90;;;;;;5033748;28;20107;-84
2020/12/21 04:16:00;;;;;;;25.80;17.57;;;1.60;99.90;;;;;;5016163;28;20459;-84
2020/12/21 04:18:26;;;;;;;22.10;15.63;;;1.60;99.90;;;;;;5033553;28;20055;-84
2020/12/21 04:20:51;;;;;;;26.30;19.17;;;1.60;99.90;;;;;;5033276;28;20125;-85
2020/12/21 04:23:17;;;;;;;24.07;16.77;;;1.70;99.90;;;;;;5015496;28;20387;-84
2020/12/21 04:25:42;;;;;;;28.40;16.60;;;1.70;99.90;;;;;;5033667;28;20091;-84
2020/12/21 04:28:08;;;;;;;30.03;17.80;;;1.70;99.90;;;;;;5033363;28;20044;-84
2020/12/21 04:30:34;;;;;;;27.70;18.13;;;1.70;99.90;;;;;;5033813;28;20051;-84
2020/12/21 04:32:59;;;;;;;25.83;17.63;;;1.70;99.90;;;;;;5033450;28;20065;-84
2020/12/21 04:35:25;;;;;;;26.47;18.03;;;1.70;99.90;;;;;;5015781;28;20017;-84
2020/12/21 04:37:50;;;;;;;30.77;19.33;;;1.80;99.90;;;;;;5033155;28;20394;-84
2020/12/21 04:40:18;;;;;;;26.87;19.30;;;1.80;99.90;;;;;;5015359;28;20030;-84
2020/12/21 04:42:50;;;;;;;38.20;20.53;;;1.80;99.90;;;;;;5015579;28;20025;-84
2020/12/21 04:45:17;;;;;;;28.77;19.20;;;1.90;99.90;;;;;;5033030;28;20417;-83
2020/12/21 04:47:43;;;;;;;30.87;18.77;;;1.90;99.90;;;;;;5015999;28;20021;-84
2020/12/21 04:50:14;;;;;;;26.03;18.43;;;1.90;99.90;;;;;;5033144;28;20021;-84
2020/12/21 04:52:51;;;;;;;24.03;17.97;;;1.90;99.90;;;;;;5033190;28;20021;-84
2020/12/21 04:55:22;;;;;;;32.47;17.97;;;2.00;99.90;;;;;;5032932;28;20057;-84
2020/12/21 04:57:58;;;;;;;27.63;18.60;;;1.90;99.90;;;;;;5015947;28;20075;-84
2020/12/21 05:00:25;;;;;;;32.90;18.70;;;2.00;99.90;;;;;;5033011;28;20032;-84
2020/12/21 05:02:51;;;;;;;33.13;19.10;;;2.00;99.90;;;;;;5033415;28;20018;-84
2020/12/21 05:05:35;;;;;;;28.97;18.53;;;2.00;99.90;;;;;;5033067;28;20374;-83
2020/12/21 05:08:09;;;;;;;26.23;18.17;;;2.00;99.90;;;;;;5032567;28;20438;-84
2020/12/21 05:10:43;;;;;;;28.20;18.37;;;2.00;99.90;;;;;;5032713;28;20022;-84
2020/12/21 05:13:10;;;;;;;26.48;19.52;;;2.00;99.90;;;;;;5033038;28;20021;-83
2020/12/21 05:15:36;;;;;;;45.30;28.30;;;2.00;99.90;;;;;;5032623;28;20064;-83
2020/12/21 05:18:11;;;;;;;34.30;22.23;;;2.00;99.90;;;;;;5015163;28;20030;-82
2020/12/21 05:20:38;;;;;;;34.43;21.60;;;2.10;99.90;;;;;;5033030;28;20350;-83
2020/12/21 05:23:06;;;;;;;27.07;17.07;;;2.10;99.90;;;;;;5032796;28;20467;-82
2020/12/21 05:25:32;;;;;;;29.10;19.47;;;2.10;99.90;;;;;;5022935;28;20485;-83
2020/12/21 05:28:09;;;;;;;27.40;18.47;;;2.10;99.90;;;;;;5021554;28;20033;-94
2020/12/21 05:30:35;;;;;;;29.37;18.73;;;2.10;99.90;;;;;;5033757;28;20029;-94
2020/12/21 05:33:02;;;;;;;70.73;40.07;;;2.10;99.90;;;;;;5033737;28;20029;-95
2020/12/21 05:35:31;;;;;;;34.23;21.73;;;2.20;99.90;;;;;;5038040;28;20037;-94
2020/12/21 05:37:57;;;;;;;28.33;19.17;;;2.20;99.90;;;;;;5037735;28;20536;-94
2020/12/21 05:40:25;;;;;;;38.03;21.73;;;2.20;99.90;;;;;;5038074;28;20060;-93
2020/12/21 05:42:52;;;;;;;52.17;30.30;;;2.20;99.90;;;;;;5038052;28;20025;-95
2020/12/21 05:45:18;;;;;;;35.63;24.17;;;2.30;99.90;;;;;;5037604;28;20378;-94
2020/12/21 05:47:49;;;;;;;37.57;23.63;;;2.30;99.90;;;;;;5037408;28;20033;-92
2020/12/21 05:50:20;;;;;;;35.13;22.27;;;2.30;99.90;;;;;;5038780;28;20108;-93
2020/12/21 05:52:53;;;;;;;33.33;22.40;;;2.30;99.90;;;;;;5057348;28;20377;-93
2020/12/21 05:55:20;;;;;;;34.67;23.83;;;2.30;99.90;;;;;;5057906;28;20041;-94
2020/12/21 05:57:48;;;;;;;35.10;22.97;;;2.30;99.90;;;;;;5057704;28;20129;-93
2020/12/21 06:00:15;;;;;;;33.33;22.87;;;2.30;99.90;;;;;;5057448;28;20036;-93
2020/12/21 06:02:43;;;;;;;32.60;20.90;;;2.30;99.90;;;;;;5057513;28;20051;-92
2020/12/21 06:05:10;;;;;;;32.03;20.83;;;2.30;99.90;;;;;;5043042;28;20113;-93
2020/12/21 06:07:37;;;;;;;40.20;22.73;;;2.30;99.90;;;;;;5037139;28;20033;-93
2020/12/21 06:10:08;;;;;;;33.50;21.33;;;2.40;99.90;;;;;;5026574;28;20036;-93
2020/12/21 06:12:43;;;;;;;33.03;21.03;;;2.40;99.90;;;;;;5034184;28;20061;-93
2020/12/21 06:15:10;;;;;;;;;;;2.40;99.90;;;;;;5037546;28;20416;-92
2020/12/21 06:17:36;;;;;;;25.43;18.73;;;2.40;99.90;;;;;;5036551;28;19915;-93
2020/12/21 06:20:07;;;;;;;29.63;17.37;;;2.30;99.90;;;;;;5036637;28;20112;-93
2020/12/21 06:22:32;;;;;;;30.43;18.47;;;2.30;99.90;;;;;;5036700;28;20061;-94
2020/12/21 06:24:58;;;;;;;33.23;22.07;;;2.30;99.90;;;;;;5036696;28;20073;-94
2020/12/21 06:27:24;;;;;;;51.23;30.10;;;2.30;99.90;;;;;;5036870;28;20466;-92
2020/12/21 06:29:59;;;;;;;37.70;20.60;;;2.30;99.90;;;;;;5036869;28;20025;-93
2020/12/21 06:32:32;;;;;;;35.97;22.27;;;2.30;99.90;;;;;;5036294;28;20037;-94
2020/12/21 06:34:58;;;;;;;28.37;20.17;;;2.30;99.90;;;;;;5034454;28;20035;-85
2020/12/21 06:37:24;;;;;;;29.43;20.30;;;2.30;99.90;;;;;;5044064;28;20109;-83
2020/12/21 06:39:58;;;;;;;30.97;20.73;;;2.30;99.90;;;;;;5041671;28;20029;-83
2020/12/21 06:42:24;;;;;;;35.23;23.03;;;2.20;99.90;;;;;;5006646;28;20040;-84
2020/12/21 06:44:51;;;;;;;32.07;22.53;;;2.20;99.90;;;;;;5035154;28;20053;-81
2020/12/21 06:47:16;;;;;;;31.07;20.73;;;2.20;99.90;;;;;;5031656;28;20044;-84
2020/12/21 06:49:42;;;;;;;33.67;19.40;;;2.20;99.90;;;;;;5035504;28;20037;-81
2020/12/21 06:52:08;;;;;;;32.70;20.70;;;2.20;99.90;;;;;;5038551;28;20029;-80
2020/12/21 06:54:33;;;;;;;28.43;19.07;;;2.20;99.90;;;;;;5028347;28;20028;-81
2020/12/21 06:56:59;;;;;;;31.17;19.37;;;2.10;99.90;;;;;;5040976;28;20083;-81
2020/12/21 06:59:27;;;;;;;32.73;20.43;;;2.00;99.90;;;;;;5018996;28;20041;-81
2020/12/21 07:01:54;;;;;;;29.27;19.27;;;2.00;99.90;;;;;;5042039;28;20057;-81
2020/12/21 07:04:22;;;;;;;31.97;20.30;;;2.00;99.90;;;;;;5036741;28;20358;-81
2020/12/21 07:06:49;;;;;;;29.47;19.43;;;1.90;99.90;;;;;;5035570;28;20155;-81
2020/12/21 07:09:25;;;;;;;27.57;18.87;;;2.00;99.90;;;;;;5048874;28;20060;-81
2020/12/21 07:11:58;;;;;;;30.43;18.93;;;1.90;99.90;;;;;;5053382;28;20373;-81
2020/12/21 07:14:25;;;;;;;28.10;19.20;;;1.90;99.90;;;;;;5035511;28;20029;-81
2020/12/21 07:17:07;;;;;;;30.07;18.40;;;1.90;99.90;;;;;;5039716;28;20167;-81
2020/12/21 07:19:35;;;;;;;27.80;18.73;;;1.90;99.90;;;;;;5017414;28;20033;-81
2020/12/21 07:22:07;;;;;;;27.20;18.13;;;1.90;99.90;;;;;;5017910;28;20025;-80
2020/12/21 07:24:34;;;;;;;38.17;22.60;;;1.90;99.90;;;;;;5048509;28;20089;-82
2020/12/21 07:27:01;;;;;;;29.20;19.57;;;1.90;99.90;;;;;;5029441;28;20327;-86
2020/12/21 07:29:35;;;;;;;37.40;19.30;;;1.90;99.90;;;;;;5028978;28;20025;-86
2020/12/21 07:32:02;;;;;;;53.30;18.53;;;1.80;99.90;;;;;;5029379;28;20041;-86
2020/12/21 07:34:28;;;;;;;26.33;18.53;;;1.90;99.90;;;;;;5026150;28;20112;-85
2020/12/21 07:36:54;;;;;;;28.80;18.27;;;1.80;99.90;;;;;;5034534;28;20514;-94
2020/12/21 07:39:20;;;;;;;27.77;18.23;;;1.80;99.90;;;;;;5035129;28;20055;-82
2020/12/21 07:41:54;;;;;;;31.73;18.37;;;1.80;99.90;;;;;;5017362;28;20021;-81
2020/12/21 07:44:28;;;;;;;29.08;18.88;;;1.80;99.90;;;;;;5037602;28;20029;-86
2020/12/21 07:47:15;;;;;;;35.07;20.73;;;1.70;99.90;;;;;;5034408;28;20389;-86
2020/12/21 07:49:42;;;;;;;42.23;22.73;;;1.70;99.90;;;;;;5020247;28;20045;-86
2020/12/21 07:52:09;;;;;;;38.93;22.47;;;1.70;99.90;;;;;;5026221;28;20048;-96
2020/12/21 07:54:41;;;;;;;38.37;21.80;;;1.70;99.90;;;;;;5048798;28;20026;-93
2020/12/21 07:57:07;;;;;;;36.07;23.40;;;1.70;99.90;;;;;;5032792;28;20033;-87
2020/12/21 07:59:33;;;;;;;42.70;24.23;;;1.70;99.90;;;;;;5031471;28;20037;-86
2020/12/21 08:02:05;;;;;;;43.57;23.23;;;1.70;99.90;;;;;;5019821;28;20025;-87
2020/12/21 08:04:31;;;;;;;37.23;22.37;;;1.80;99.90;;;;;;5033695;28;20049;-87
2020/12/21 08:07:07;;;;;;;34.80;21.40;;;1.80;99.90;;;;;;5012572;28;20537;-86
2020/12/21 08:09:37;;;;;;;36.00;20.80;;;1.90;99.90;;;;;;5027863;28;20037;-82
2020/12/21 08:12:13;;;;;;;31.73;19.93;;;1.90;99.90;;;;;;5016455;28;20034;-81
2020/12/21 08:14:40;;;;;;;32.30;18.53;;;1.90;99.90;;;;;;5014413;28;20033;-81
2020/12/21 08:17:11;;;;;;;27.57;17.27;;;2.00;99.90;;;;;;5026776;28;20350;-81
2020/12/21 08:19:51;;;;;;;26.03;18.10;;;2.00;99.90;;;;;;5034173;28;20013;-86
2020/12/21 08:22:24;;;;;;;29.53;16.27;;;2.00;99.90;;;;;;5025017;28;20026;-92
2020/12/21 08:25:06;;;;;;;26.30;17.33;;;2.10;99.90;;;;;;5047684;28;20040;-92
2020/12/21 08:27:32;;;;;;;28.63;17.27;;;2.10;99.90;;;;;;5050075;28;20050;-92
2020/12/21 08:30:15;;;;;;;31.17;18.37;;;2.10;99.90;;;;;;5050435;28;20029;-91
2020/12/21 08:32:42;;;;;;;28.57;17.60;;;2.20;99.90;;;;;;5032081;28;20025;-93
2020/12/21 08:35:08;;;;;;;26.57;18.13;;;2.20;99.90;;;;;;5022897;28;20029;-93
2020/12/21 08:37:35;;;;;;;32.20;19.27;;;2.30;99.90;;;;;;5035591;28;20057;-81
2020/12/21 08:40:19;;;;;;;30.50;18.40;;;2.30;99.90;;;;;;5019227;28;20034;-81
2020/12/21 08:42:45;;;;;;;27.90;17.77;;;2.30;99.90;;;;;;5024155;28;20013;-81
2020/12/21 08:45:18;;;;;;;23.67;15.87;;;2.40;99.90;;;;;;5035962;28;20025;-81
2020/12/21 08:47:44;;;;;;;23.27;15.27;;;2.40;99.90;;;;;;5027392;28;20116;-81
2020/12/21 08:50:09;;;;;;;24.53;16.30;;;2.40;99.90;;;;;;5007493;28;20530;-81
2020/12/21 08:52:35;;;;;;;29.57;17.33;;;2.50;99.90;;;;;;5021531;28;20496;-80
2020/12/21 08:55:00;;;;;;;24.47;16.43;;;2.50;99.90;;;;;;5015658;28;20367;-81
2020/12/21 08:57:26;;;;;;;26.40;18.23;;;2.50;99.90;;;;;;5016151;28;20049;-81
2020/12/21 08:59:51;;;;;;;29.37;17.53;;;2.50;99.90;;;;;;5026173;28;20123;-82
2020/12/21 09:02:17;;;;;;;25.40;18.03;;;2.50;99.90;;;;;;5025351;28;20049;-89
2020/12/21 09:04:42;;;;;;;27.90;19.60;;;2.50;99.90;;;;;;5036923;28;20026;-90
2020/12/21 09:07:08;;;;;;;30.97;20.80;;;2.60;99.90;;;;;;5035078;28;20047;-89
2020/12/21 09:09:34;;;;;;;30.30;19.20;;;2.70;99.90;;;;;;5039602;28;20059;-90
2020/12/21 09:11:59;;;;;;;33.40;19.30;;;2.70;99.90;;;;;;5037207;28;20438;-88
2020/12/21 09:14:25;;;;;;;29.83;21.60;;;2.80;99.90;;;;;;5029970;28;20048;-87
2020/12/21 09:16:51;;;;;;;31.23;20.87;;;2.80;99.90;;;;;;5027262;28;20017;-87
2020/12/21 09:19:18;;;;;;;35.67;22.17;;;2.90;99.90;;;;;;5031021;28;20087;-87
2020/12/21 09:21:44;;;;;;;27.67;19.97;;;3.00;99.90;;;;;;5036940;28;20018;-88
2020/12/21 09:24:09;;;;;;;30.80;20.93;;;3.00;99.90;;;;;;5032880;28;20033;-87
2020/12/21 09:26:35;;;;;;;33.50;22.30;;;3.00;99.90;;;;;;5015016;28;20416;-87
2020/12/21 09:29:01;;;;;;;35.70;23.23;;;3.10;99.90;;;;;;5033050;28;20208;-88
2020/12/21 09:31:27;;;;;;;35.17;24.03;;;3.20;99.90;;;;;;5032410;28;20108;-87
2020/12/21 09:33:54;;;;;;;40.97;24.67;;;3.20;99.90;;;;;;5032897;28;20025;-87
2020/12/21 09:36:20;;;;;;;83.83;36.53;;;3.30;99.90;;;;;;5032329;28;20097;-87
2020/12/21 09:38:48;;;;;;;38.63;21.80;;;3.40;99.90;;;;;;5032498;28;20152;-87
2020/12/21 09:41:19;;;;;;;34.83;22.23;;;3.50;99.90;;;;;;5014509;28;20467;-87
2020/12/21 09:43:47;;;;;;;51.50;27.33;;;3.60;99.90;;;;;;5031727;28;20429;-87
2020/12/21 09:46:19;;;;;;;113.43;42.00;;;3.60;99.90;;;;;;5028028;28;20021;-87
2020/12/21 09:48:47;;;;;;;266.47;82.97;;;3.70;99.90;;;;;;5032364;28;20433;-86
2020/12/21 09:51:12;;;;;;;78.27;33.17;;;3.70;99.90;;;;;;5034137;28;20014;-85
2020/12/21 09:53:39;;;;;;;77.77;32.13;;;3.80;99.90;;;;;;5033530;28;20463;-84
2020/12/21 09:56:04;;;;;;;130.13;45.97;;;3.80;99.90;;;;;;5033697;28;20104;-84
2020/12/21 09:58:30;;;;;;;47.77;24.53;;;3.90;99.90;;;;;;5033075;28;20478;-85
2020/12/21 10:00:55;;;;;;;32.47;22.67;;;3.90;99.90;;;;;;5038738;28;20036;-85
2020/12/21 10:03:21;;;;;;;109.57;42.87;;;4.00;99.90;;;;;;5053425;28;20128;-85
2020/12/21 10:05:46;;;;;;;35.30;23.17;;;4.00;99.90;;;;;;5035278;28;20032;-85
2020/12/21 10:08:12;;;;;;;35.73;23.37;;;4.10;99.90;;;;;;5053437;28;20024;-85
2020/12/21 10:10:38;;;;;;;72.53;33.67;;;4.20;99.90;;;;;;5053061;28;20036;-85
2020/12/21 10:13:03;;;;;;;42.47;24.77;;;4.30;99.90;;;;;;5053265;28;20021;-85
2020/12/21 10:15:29;;;;;;;45.93;25.00;;;4.40;99.90;;;;;;5053279;28;20107;-85
2020/12/21 10:17:54;;;;;;;76.43;38.83;;;4.40;99.90;;;;;;5053222;28;20032;-86
2020/12/21 10:20:20;;;;;;;32.40;22.97;;;4.50;99.90;;;;;;5037016;28;20036;-85
2020/12/21 10:22:45;;;;;;;33.93;20.77;;;4.60;99.90;;;;;;5056781;28;20028;-85
2020/12/21 10:25:11;;;;;;;35.67;20.90;;;4.70;99.90;;;;;;5019586;28;20029;-85
2020/12/21 10:27:36;;;;;;;35.37;24.63;;;4.70;99.90;;;;;;5018968;28;20018;-85
2020/12/21 10:30:02;;;;;;;40.47;27.83;;;4.80;99.90;;;;;;5036396;28;20040;-86
2020/12/21 10:32:28;;;;;;;27.10;17.83;;;4.90;99.90;;;;;;5034726;28;20043;-85
2020/12/21 10:34:53;;;;;;;24.53;17.13;;;5.00;99.90;;;;;;5035623;28;20030;-86
2020/12/21 10:37:19;;;;;;;22.30;17.13;;;5.10;99.90;;;;;;5035743;28;20037;-86
2020/12/21 10:39:44;;;;;;;23.40;17.30;;;5.10;99.90;;;;;;5035653;28;20381;-86
2020/12/21 10:42:10;;;;;;;26.70;17.37;;;5.10;99.90;;;;;;5035527;28;20343;-86
2020/12/21 10:44:36;;;;;;;23.73;17.23;;;5.20;99.90;;;;;;5035659;28;20492;-86
2020/12/21 10:47:01;;;;;;;27.20;16.77;;;5.20;99.90;;;;;;5036034;28;20410;-87
2020/12/21 10:49:27;;;;;;;22.23;16.37;;;5.20;99.90;;;;;;5035681;28;20026;-87
2020/12/21 10:51:52;;;;;;;23.73;16.00;;;5.20;99.90;;;;;;5036431;28;20032;-86
2020/12/21 10:54:18;;;;;;;22.60;16.63;;;5.20;99.90;;;;;;5031231;28;20084;-86
2020/12/21 10:56:44;;;;;;;20.97;15.13;;;5.20;99.90;;;;;;5035743;28;20422;-87
2020/12/21 10:59:09;;;;;;;24.13;16.13;;;5.20;99.90;;;;;;5033875;28;20099;-86
2020/12/21 11:01:35;;;;;;;22.83;17.67;;;5.20;99.90;;;;;;5014840;28;20030;-87
2020/12/21 11:04:01;;;;;;;24.80;14.73;;;5.30;99.90;;;;;;5016452;28;20022;-85
2020/12/21 11:06:26;;;;;;;21.53;14.30;;;5.30;99.90;;;;;;5029669;28;20022;-87
2020/12/21 11:08:53;;;;;;;21.67;14.90;;;5.30;99.90;;;;;;5032693;28;20048;-87
2020/12/21 11:11:26;;;;;;;21.50;16.10;;;5.30;99.90;;;;;;5035603;28;20370;-87
2020/12/21 11:13:53;;;;;;;23.33;16.03;;;5.40;99.90;;;;;;5036019;28;20027;-86
2020/12/21 11:16:19;;;;;;;20.97;15.47;;;5.40;99.90;;;;;;5030275;28;20025;-88
2020/12/21 11:18:45;;;;;;;25.93;18.07;;;5.40;99.90;;;;;;5033200;28;20033;-87
2020/12/21 11:21:10;;;;;;;30.63;22.97;;;5.40;99.90;;;;;;5031467;28;20158;-87
2020/12/21 11:23:36;;;;;;;27.60;18.80;;;5.40;99.90;;;;;;5035122;28;20362;-87
2020/12/21 11:26:01;;;;;;;30.00;22.40;;;5.40;99.90;;;;;;5042891;28;20404;-87
2020/12/21 11:28:27;;;;;;;27.20;19.17;;;5.40;99.90;;;;;;5034853;28;20542;-86
2020/12/21 11:30:53;;;;;;;25.97;17.97;;;5.30;99.90;;;;;;5034621;28;20034;-87
2020/12/21 11:33:18;;;;;;;31.00;21.60;;;5.30;99.90;;;;;;5034561;28;20033;-87
2020/12/21 11:35:44;;;;;;;26.60;20.20;;;5.30;99.90;;;;;;5011194;28;20044;-86
2020/12/21 11:38:09;;;;;;;27.50;19.37;;;5.20;99.90;;;;;;5034140;28;20049;-87
2020/12/21 11:40:35;;;;;;;30.33;19.80;;;5.20;99.90;;;;;;5034482;28;20129;-87
2020/12/21 11:43:01;;;;;;;25.67;19.23;;;5.10;99.90;;;;;;5026590;28;20033;-87
2020/12/21 11:45:27;;;;;;;26.87;19.07;;;5.10;99.90;;;;;;5034299;28;20025;-87
2020/12/21 11:47:53;;;;;;;26.37;19.00;;;5.00;99.90;;;;;;5034608;28;20052;-87
2020/12/21 11:50:18;;;;;;;25.50;17.50;;;5.00;99.90;;;;;;5040572;28;20018;-92
2020/12/21 11:52:44;;;;;;;26.57;19.50;;;5.00;99.90;;;;;;5034694;28;20096;-91
2020/12/21 11:55:11;;;;;;;27.97;18.57;;;4.90;99.90;;;;;;5034807;28;20096;-91
2020/12/21 11:57:36;;;;;;;27.73;19.03;;;4.90;99.90;;;;;;5025047;28;20048;-91
2020/12/21 12:00:04;;;;;;;28.53;19.93;;;4.90;99.90;;;;;;5033650;28;20462;-91
2020/12/21 12:02:29;;;;;;;30.17;20.27;;;4.80;99.90;;;;;;5015503;28;20488;-91
2020/12/21 12:04:55;;;;;;;27.53;19.27;;;4.80;99.90;;;;;;5016794;28;20109;-91
2020/12/21 12:07:20;;;;;;;32.10;21.87;;;4.80;99.90;;;;;;5037726;28;20056;-91
2020/12/21 12:09:46;;;;;;;27.53;19.87;;;4.70;99.90;;;;;;5034479;28;20026;-91
2020/12/21 12:12:12;;;;;;;27.33;18.87;;;4.70;99.90;;;;;;5034239;28;20128;-91
2020/12/21 12:14:37;;;;;;;35.33;24.90;;;4.70;99.90;;;;;;5007601;28;20403;-91
2020/12/21 12:17:03;;;;;;;29.00;21.43;;;4.70;99.90;;;;;;5032293;28;20417;-92
2020/12/21 12:19:29;;;;;;;30.17;21.20;;;4.70;99.90;;;;;;5029823;28;20025;-83
2020/12/21 12:21:55;;;;;;;32.23;21.57;;;4.60;99.90;;;;;;5052445;28;20021;-84
2020/12/21 12:24:21;;;;;;;29.27;20.87;;;4.60;99.90;;;;;;5057616;28;20034;-83
2020/12/21 12:26:47;;;;;;;30.93;21.83;;;4.60;99.90;;;;;;5039762;28;20030;-83
2020/12/21 12:29:13;;;;;;;32.90;22.93;;;4.60;99.90;;;;;;5036142;28;20459;-83
2020/12/21 12:31:39;;;;;;;34.57;23.00;;;4.60;99.90;;;;;;5035181;28;20036;-83
2020/12/21 12:34:04;;;;;;;35.57;23.00;;;4.60;99.90;;;;;;5035015;28;20028;-83
2020/12/21 12:36:30;;;;;;;35.53;22.33;;;4.50;99.90;;;;;;5034070;28;20029;-83